Welcome to Northern Hawkes Bay. New Zealand.
PWS Header
      nz Flag



Hit Counter


W3C Valid W3C Valid logo


    Wairoa

Select any of the Stations below to visit their websites.










Historic Data from Weather Underground
Select the location of interest below. Wairoa is the default. Please have patience, this Data is slow to load in.
Northern Hawkes Bay Historical Data
Daily Summary for December 7, 2017 Units:  Metric    English   Both
« Previous Day
Next Day »
Daily Weekly Monthly Yearly Custom
  High: Low: Average:
Temperature: 24.9 °C 16.8 °C 20.8 °C
Dew Point: 17.7 °C 14.3 °C 16.3 °C
Humidity: 92% 56% 76%
Wind Speed: 11.1km/h 0.0km/h 2.4km/h
Wind Gust: 20.9km/h - -
Wind- - SE
Pressure: 1019.2 hPa 1016.5 hPa -
Precipitation: 0.0 mm    
Historical Graphs
 
 
Tabular Data for December 7, 2017
Time Temperature Dew Point Pressure Wind Wind Speed Wind Gust Humidity Rainfall Rate (Hourly) solar
00:02 19.0 °C 16.2 °C 1018.2 hPa Calm   5.0 km/h 84% 0.0 mm 0 W/m2
00:07 18.9 °C 16.3 °C 1018.5 hPa ESE 1.1 km/h 5.0 km/h 85% 0.0 mm 0 W/m2
00:12 18.9 °C 16.3 °C 1018.5 hPa Calm   5.0 km/h 85% 0.0 mm 0 W/m2
00:17 18.9 °C 16.3 °C 1018.5 hPa Calm   5.0 km/h 85% 0.0 mm 0 W/m2
00:35 19.0 °C 15.5 °C 1018.2 hPa Calm   5.0 km/h 80% 0.0 mm 0 W/m2
00:40 19.0 °C 15.5 °C 1018.2 hPa SE 1.1 km/h 5.0 km/h 80% 0.0 mm 0 W/m2
00:45 19.0 °C 15.7 °C 1018.2 hPa Calm   5.0 km/h 81% 0.0 mm 0 W/m2
00:50 19.0 °C 15.9 °C 1018.2 hPa Calm   5.0 km/h 82% 0.0 mm 0 W/m2
00:55 18.9 °C 16.2 °C 1018.2 hPa Calm   2.6 km/h 84% 0.0 mm 0 W/m2
01:00 18.9 °C 16.3 °C 1018.2 hPa Calm   3.5 km/h 85% 0.0 mm 0 W/m2
01:06 18.8 °C 16.4 °C 1018.2 hPa Calm   3.5 km/h 86% 0.0 mm 0 W/m2
01:11 18.7 °C 16.5 °C 1018.2 hPa Calm   1.1 km/h 87% 0.0 mm 0 W/m2
01:16 18.6 °C 16.4 °C 1018.2 hPa Calm   1.1 km/h 87% 0.0 mm 0 W/m2
01:22 18.6 °C 16.4 °C 1018.2 hPa Calm   2.6 km/h 87% 0.0 mm 0 W/m2
01:27 18.6 °C 16.6 °C 1018.2 hPa Calm   2.6 km/h 88% 0.0 mm 0 W/m2
01:32 18.6 °C 16.8 °C 1018.2 hPa Calm   2.6 km/h 89% 0.0 mm 0 W/m2
01:37 18.6 °C 16.9 °C 1018.2 hPa NW 1.1 km/h 3.5 km/h 90% 0.0 mm 0 W/m2
01:42 18.6 °C 17.1 °C 1018.2 hPa NW 2.6 km/h 3.5 km/h 91% 0.0 mm 0 W/m2
01:47 18.6 °C 17.1 °C 1018.2 hPa Calm   3.5 km/h 91% 0.0 mm 0 W/m2
01:52 18.5 °C 17.0 °C 1017.8 hPa Calm   3.5 km/h 91% 0.0 mm 0 W/m2
01:57 18.5 °C 16.8 °C 1018.2 hPa Calm   2.6 km/h 90% 0.0 mm 0 W/m2
02:02 18.5 °C 16.8 °C 1018.2 hPa Calm   2.6 km/h 90% 0.0 mm 0 W/m2
02:07 18.5 °C 16.8 °C 1018.2 hPa Calm   2.6 km/h 90% 0.0 mm 0 W/m2
02:12 18.5 °C 16.8 °C 1018.2 hPa Calm   2.6 km/h 90% 0.0 mm 0 W/m2
02:17 18.5 °C 16.7 °C 1018.2 hPa Calm     89% 0.0 mm 0 W/m2
02:22 18.5 °C 16.5 °C 1018.2 hPa Calm     88% 0.0 mm 0 W/m2
02:27 18.5 °C 16.5 °C 1018.2 hPa Calm     88% 0.0 mm 0 W/m2
02:32 18.5 °C 16.5 °C 1018.2 hPa Calm     88% 0.0 mm 0 W/m2
02:37 18.5 °C 16.5 °C 1018.2 hPa Calm   3.5 km/h 88% 0.0 mm 0 W/m2
02:42 18.5 °C 16.5 °C 1018.2 hPa Calm   3.5 km/h 88% 0.0 mm 0 W/m2
02:47 18.5 °C 16.5 °C 1018.2 hPa Calm   3.5 km/h 88% 0.0 mm 0 W/m2
02:52 18.5 °C 16.5 °C 1018.2 hPa Calm   3.5 km/h 88% 0.0 mm 0 W/m2
02:57 18.5 °C 16.5 °C 1018.2 hPa Calm   2.6 km/h 88% 0.0 mm 0 W/m2
03:02 18.5 °C 16.5 °C 1018.2 hPa Calm   2.6 km/h 88% 0.0 mm 0 W/m2
03:07 18.4 °C 16.4 °C 1017.8 hPa Calm   2.6 km/h 88% 0.0 mm 0 W/m2
03:12 18.4 °C 16.4 °C 1018.2 hPa Calm   2.6 km/h 88% 0.0 mm 0 W/m2
03:17 18.4 °C 16.4 °C 1018.2 hPa SW 1.1 km/h 3.5 km/h 88% 0.0 mm 0 W/m2
03:22 18.4 °C 16.4 °C 1018.2 hPa SW 2.6 km/h 5.0 km/h 88% 0.0 mm 0 W/m2
03:27 18.4 °C 16.4 °C 1018.2 hPa Calm   5.0 km/h 88% 0.0 mm 0 W/m2
03:32 18.4 °C 16.2 °C 1018.2 hPa SW 1.1 km/h 5.0 km/h 87% 0.0 mm 0 W/m2
03:37 18.5 °C 16.3 °C 1017.8 hPa SW 1.1 km/h 5.0 km/h 87% 0.0 mm 0 W/m2
03:42 18.5 °C 16.3 °C 1017.8 hPa SW 2.6 km/h 6.1 km/h 87% 0.0 mm 0 W/m2
03:47 18.5 °C 16.5 °C 1017.5 hPa South 1.1 km/h 6.1 km/h 88% 0.0 mm 0 W/m2
03:52 18.4 °C 16.4 °C 1017.8 hPa SSE 2.6 km/h 6.1 km/h 88% 0.0 mm 0 W/m2
03:57 18.4 °C 16.6 °C 1017.8 hPa ESE 1.1 km/h 6.1 km/h 89% 0.0 mm 0 W/m2
04:02 18.3 °C 16.3 °C 1017.8 hPa East 1.1 km/h 6.1 km/h 88% 0.0 mm 0 W/m2
04:07 18.3 °C 16.3 °C 1017.8 hPa East 1.1 km/h 5.0 km/h 88% 0.0 mm 0 W/m2
04:12 18.4 °C 16.4 °C 1017.8 hPa East 2.6 km/h 5.0 km/h 88% 0.0 mm 0 W/m2
04:17 18.4 °C 16.4 °C 1017.8 hPa East 1.1 km/h 5.0 km/h 88% 0.0 mm 0 W/m2
04:22 18.3 °C 16.4 °C 1017.8 hPa Calm   3.5 km/h 89% 0.0 mm 0 W/m2
04:27 18.3 °C 16.4 °C 1017.8 hPa Calm   5.0 km/h 89% 0.0 mm 0 W/m2
04:32 18.3 °C 16.4 °C 1017.8 hPa Calm   5.0 km/h 89% 0.0 mm 0 W/m2
04:37 18.3 °C 16.4 °C 1017.8 hPa Calm     89% 0.0 mm 0 W/m2
04:42 18.3 °C 16.7 °C 1017.8 hPa East 2.6 km/h 5.0 km/h 90% 0.0 mm 0 W/m2
04:47 18.3 °C 16.7 °C 1018.2 hPa Calm   5.0 km/h 90% 0.0 mm 0 W/m2
04:52 18.2 °C 16.7 °C 1018.2 hPa Calm   3.5 km/h 91% 0.0 mm 0 W/m2
04:57 18.2 °C 16.7 °C 1017.8 hPa Calm     91% 0.0 mm 0 W/m2
05:02 18.2 °C 16.7 °C 1017.8 hPa Calm     91% 0.0 mm 0 W/m2
05:07 18.2 °C 16.7 °C 1018.2 hPa Calm   2.6 km/h 91% 0.0 mm 0 W/m2
05:12 18.2 °C 16.7 °C 1018.2 hPa Calm   3.5 km/h 91% 0.0 mm 0 W/m2
05:17 18.1 °C 16.6 °C 1018.2 hPa East 1.1 km/h 3.5 km/h 91% 0.0 mm 0 W/m2
05:22 18.1 °C 16.8 °C 1018.2 hPa Calm   3.5 km/h 92% 0.0 mm 0 W/m2
05:27 18.1 °C 16.8 °C 1018.2 hPa Calm   2.6 km/h 92% 0.0 mm 0 W/m2
05:32 18.1 °C 16.8 °C 1018.2 hPa Calm   2.6 km/h 92% 0.0 mm 0 W/m2
05:37 18.1 °C 16.8 °C 1018.2 hPa Calm   2.6 km/h 92% 0.0 mm 0 W/m2
05:42 18.1 °C 16.8 °C 1018.2 hPa East 1.1 km/h 3.5 km/h 92% 0.0 mm 0 W/m2
05:47 18.1 °C 16.8 °C 1018.2 hPa Calm   3.5 km/h 92% 0.0 mm 0 W/m2
05:52 18.1 °C 16.8 °C 1018.2 hPa Calm   2.6 km/h 92% 0.0 mm 1 W/m2
05:57 18.1 °C 16.8 °C 1018.2 hPa Calm   2.6 km/h 92% 0.0 mm 4 W/m2
06:02 18.2 °C 16.9 °C 1018.2 hPa Calm   2.6 km/h 92% 0.0 mm 7 W/m2
06:07 18.2 °C 16.7 °C 1018.2 hPa East 1.1 km/h 3.5 km/h 91% 0.0 mm 11 W/m2
06:12 18.2 °C 16.7 °C 1018.2 hPa Calm   3.5 km/h 91% 0.0 mm 13 W/m2
06:17 18.3 °C 16.8 °C 1018.2 hPa East 1.1 km/h 3.5 km/h 91% 0.0 mm 17 W/m2
06:22 18.4 °C 16.7 °C 1018.5 hPa East 1.1 km/h 3.5 km/h 90% 0.0 mm 20 W/m2
06:27 18.4 °C 16.7 °C 1018.2 hPa East 1.1 km/h 2.6 km/h 90% 0.0 mm 24 W/m2
06:32 18.5 °C 16.8 °C 1018.2 hPa Calm   2.6 km/h 90% 0.0 mm 29 W/m2
06:37 18.5 °C 16.8 °C 1018.5 hPa Calm   2.6 km/h 90% 0.0 mm 37 W/m2
06:42 18.6 °C 16.9 °C 1018.5 hPa Calm     90% 0.0 mm 36 W/m2
06:47 18.7 °C 17.1 °C 1018.5 hPa Calm     90% 0.0 mm 37 W/m2
06:52 18.8 °C 17.1 °C 1018.5 hPa Calm     90% 0.0 mm 46 W/m2
06:57 18.9 °C 17.2 °C 1018.5 hPa Calm     90% 0.0 mm 52 W/m2
07:02 19.1 °C 17.1 °C 1018.5 hPa Calm     88% 0.0 mm 61 W/m2
07:07 19.3 °C 17.3 °C 1018.5 hPa Calm     88% 0.0 mm 73 W/m2
07:12 19.5 °C 17.5 °C 1018.5 hPa Calm     88% 0.0 mm 76 W/m2
07:17 19.7 °C 17.7 °C 1018.5 hPa Calm     88% 0.0 mm 74 W/m2
07:22 19.6 °C 17.2 °C 1018.5 hPa ENE 2.6 km/h 3.5 km/h 86% 0.0 mm 74 W/m2
07:27 19.4 °C 16.8 °C 1018.8 hPa East 1.1 km/h 3.5 km/h 85% 0.0 mm 69 W/m2
07:32 19.4 °C 16.8 °C 1018.5 hPa ESE 1.1 km/h 3.5 km/h 85% 0.0 mm 66 W/m2
07:37 19.3 °C 16.9 °C 1018.5 hPa East 1.1 km/h 3.5 km/h 86% 0.0 mm 64 W/m2
07:42 19.3 °C 16.9 °C 1018.5 hPa Calm   3.5 km/h 86% 0.0 mm 61 W/m2
07:47 19.3 °C 16.9 °C 1018.5 hPa East 2.6 km/h 3.5 km/h 86% 0.0 mm 61 W/m2
07:52 19.3 °C 16.9 °C 1018.5 hPa ENE 2.6 km/h 5.0 km/h 86% 0.0 mm 56 W/m2
07:57 19.2 °C 17.0 °C 1018.8 hPa ENE 7.2 km/h 9.7 km/h 87% 0.0 mm 45 W/m2
08:00 19.0 °C 16.8 °C 1018.8 hPa ENE 3.5 km/h 9.7 km/h 87% 0.0 mm 46 W/m2
08:05 19.0 °C 16.8 °C 1018.8 hPa East 2.6 km/h 9.7 km/h 87% 0.0 mm 57 W/m2
08:10 19.0 °C 16.8 °C 1018.8 hPa ESE 1.1 km/h 6.1 km/h 87% 0.0 mm 69 W/m2
08:15 19.0 °C 16.6 °C 1018.5 hPa Calm   6.1 km/h 86% 0.0 mm 81 W/m2
08:20 19.0 °C 16.4 °C 1018.8 hPa East 2.6 km/h 7.2 km/h 85% 0.0 mm 88 W/m2
08:25 19.1 °C 16.6 °C 1018.8 hPa East 1.1 km/h 7.2 km/h 85% 0.0 mm 99 W/m2
08:31 19.3 °C 16.6 °C 1018.8 hPa ENE 2.6 km/h 6.1 km/h 84% 0.0 mm 115 W/m2
08:36 19.4 °C 16.7 °C 1018.8 hPa East 2.6 km/h 6.1 km/h 84% 0.0 mm 121 W/m2
08:41 19.7 °C 16.9 °C 1018.8 hPa Calm   6.1 km/h 84% 0.0 mm 122 W/m2
08:46 19.9 °C 16.9 °C 1018.8 hPa East 1.1 km/h 6.1 km/h 83% 0.0 mm 128 W/m2
08:51 19.9 °C 16.7 °C 1018.8 hPa East 1.1 km/h 5.0 km/h 82% 0.0 mm 132 W/m2
08:56 20.1 °C 16.8 °C 1018.8 hPa Calm   5.0 km/h 81% 0.0 mm 147 W/m2
09:01 20.3 °C 16.8 °C 1018.8 hPa Calm   5.0 km/h 80% 0.0 mm 148 W/m2
09:06 20.5 °C 16.7 °C 1019.2 hPa Calm   5.0 km/h 79% 0.0 mm 153 W/m2
09:11 20.8 °C 16.8 °C 1019.2 hPa Calm   5.0 km/h 78% 0.0 mm 155 W/m2
09:16 20.8 °C 16.8 °C 1018.8 hPa SSE 2.6 km/h 8.7 km/h 78% 0.0 mm 164 W/m2
09:21 20.8 °C 16.8 °C 1019.2 hPa SE 1.1 km/h 8.7 km/h 78% 0.0 mm 174 W/m2
09:22 20.8 °C 16.8 °C 1018.8 hPa SE 2.6 km/h 8.7 km/h 78% 0.0 mm 177 W/m2
09:27 20.6 °C 16.7 °C 1018.8 hPa East 5.0 km/h 8.7 km/h 78% 0.0 mm 178 W/m2
09:32 20.6 °C 16.7 °C 1018.8 hPa SE 3.5 km/h 8.7 km/h 78% 0.0 mm 171 W/m2
09:37 20.5 °C 16.6 °C 1018.8 hPa SSE 1.1 km/h 11.1 km/h 78% 0.0 mm 173 W/m2
09:42 20.5 °C 16.7 °C 1018.8 hPa SE 3.5 km/h 11.1 km/h 79% 0.0 mm 178 W/m2
09:47 20.5 °C 16.9 °C 1018.8 hPa SE 2.6 km/h 9.7 km/h 80% 0.0 mm 185 W/m2
09:52 20.6 °C 17.1 °C 1018.8 hPa SE 2.6 km/h 8.7 km/h 80% 0.0 mm 191 W/m2
10:02 20.8 °C 17.1 °C 1018.8 hPa ESE 1.1 km/h 11.1 km/h 79% 0.0 mm 243 W/m2
10:07 21.1 °C 16.9 °C 1018.8 hPa SE 3.5 km/h 8.7 km/h 77% 0.0 mm 259 W/m2
10:12 21.4 °C 16.8 °C 1018.8 hPa SE 2.6 km/h 9.7 km/h 75% 0.0 mm 278 W/m2
10:17 21.7 °C 16.9 °C 1018.8 hPa SE 5.0 km/h 9.7 km/h 74% 0.0 mm 302 W/m2
10:22 21.9 °C 16.8 °C 1018.8 hPa SE 1.1 km/h 9.7 km/h 73% 0.0 mm 326 W/m2
10:27 22.0 °C 16.5 °C 1018.8 hPa SSE 5.0 km/h 11.1 km/h 71% 0.0 mm 307 W/m2
10:32 21.8 °C 16.6 °C 1018.8 hPa SE 1.1 km/h 14.8 km/h 72% 0.0 mm 328 W/m2
10:37 22.1 °C 16.6 °C 1018.8 hPa SSE 1.1 km/h 14.8 km/h 71% 0.0 mm 318 W/m2
10:42 22.2 °C 16.5 °C 1018.8 hPa SSE 2.6 km/h 9.7 km/h 70% 0.0 mm 332 W/m2
10:47 22.3 °C 16.6 °C 1019.2 hPa SE 5.0 km/h 9.7 km/h 70% 0.0 mm 356 W/m2
10:52 22.3 °C 16.3 °C 1018.8 hPa SE 1.1 km/h 9.7 km/h 69% 0.0 mm 331 W/m2
10:57 22.2 °C 16.1 °C 1018.8 hPa SE 2.6 km/h 12.2 km/h 68% 0.0 mm 345 W/m2
11:02 22.1 °C 15.9 °C 1019.2 hPa SE 6.1 km/h 12.2 km/h 68% 0.0 mm 398 W/m2
11:07 22.3 °C 16.1 °C 1019.2 hPa SE 2.6 km/h 11.1 km/h 68% 0.0 mm 415 W/m2
11:12 22.4 °C 16.0 °C 1018.8 hPa ESE 7.2 km/h 11.1 km/h 67% 0.0 mm 415 W/m2
11:17 22.4 °C 16.0 °C 1019.2 hPa ESE 5.0 km/h 12.2 km/h 67% 0.0 mm 441 W/m2
11:22 22.5 °C 16.1 °C 1018.8 hPa SE 6.1 km/h 12.2 km/h 67% 0.0 mm 441 W/m2
11:27 22.6 °C 15.9 °C 1019.2 hPa SSE 1.1 km/h 11.1 km/h 66% 0.0 mm 498 W/m2
11:32 23.1 °C 16.4 °C 1018.8 hPa SSE 3.5 km/h 11.1 km/h 66% 0.0 mm 654 W/m2
11:37 22.9 °C 15.7 °C 1019.2 hPa SSE 5.0 km/h 13.4 km/h 64% 0.0 mm 479 W/m2
11:42 22.7 °C 15.8 °C 1018.8 hPa SSE 6.1 km/h 15.8 km/h 65% 0.0 mm 468 W/m2
11:47 22.4 °C 16.0 °C 1019.2 hPa SE 3.5 km/h 17.2 km/h 67% 0.0 mm 549 W/m2
11:52 22.6 °C 15.9 °C 1018.8 hPa SSE 6.1 km/h 17.2 km/h 66% 0.0 mm 473 W/m2
11:57 22.6 °C 15.7 °C 1019.2 hPa Calm   15.8 km/h 65% 0.0 mm 455 W/m2
12:02 22.8 °C 15.9 °C 1019.2 hPa SE 6.1 km/h 13.4 km/h 65% 0.0 mm 631 W/m2
12:07 23.2 °C 16.5 °C 1018.8 hPa ESE 5.0 km/h 12.2 km/h 66% 0.0 mm 482 W/m2
12:12 22.9 °C 16.2 °C 1019.2 hPa ESE 8.7 km/h 12.2 km/h 66% 0.0 mm 514 W/m2
12:17 22.8 °C 15.9 °C 1018.8 hPa SE 3.5 km/h 13.4 km/h 65% 0.0 mm 630 W/m2
12:22 22.5 °C 15.8 °C 1018.8 hPa SE 7.2 km/h 13.4 km/h 66% 0.0 mm 636 W/m2
12:27 22.7 °C 16.1 °C 1018.8 hPa SSE 8.7 km/h 14.8 km/h 66% 0.0 mm 515 W/m2
12:32 22.9 °C 16.0 °C 1018.8 hPa SSE 3.5 km/h 14.8 km/h 65% 0.0 mm 642 W/m2
12:37 23.0 °C 16.3 °C 1018.8 hPa SE 5.0 km/h 14.8 km/h 66% 0.0 mm 992 W/m2
12:42 23.4 °C 16.4 °C 1018.8 hPa SE 5.0 km/h 14.8 km/h 65% 0.0 mm 726 W/m2
12:47 23.3 °C 16.4 °C 1018.8 hPa SE 5.0 km/h 14.8 km/h 65% 0.0 mm 739 W/m2
12:52 23.3 °C 16.4 °C 1018.8 hPa SE 9.7 km/h 14.8 km/h 65% 0.0 mm 975 W/m2
12:57 23.1 °C 15.9 °C 1018.8 hPa SSE 8.7 km/h 14.8 km/h 64% 0.0 mm 899 W/m2
13:02 23.4 °C 16.7 °C 1018.8 hPa SSE 2.6 km/h 14.8 km/h 66% 0.0 mm 871 W/m2
13:07 23.6 °C 16.7 °C 1018.8 hPa SSE 3.5 km/h 13.4 km/h 65% 0.0 mm 835 W/m2
13:12 23.8 °C 16.6 °C 1018.8 hPa SE 3.5 km/h 17.2 km/h 64% 0.0 mm 835 W/m2
13:17 23.5 °C 16.1 °C 1018.8 hPa ESE 2.6 km/h 17.2 km/h 63% 0.0 mm 827 W/m2
13:22 23.0 °C 16.1 °C 1018.8 hPa SSE 8.7 km/h 17.2 km/h 65% 0.0 mm 819 W/m2
13:27 23.2 °C 16.3 °C 1018.5 hPa SSE 3.5 km/h 17.2 km/h 65% 0.0 mm 823 W/m2
13:32 23.5 °C 16.1 °C 1018.5 hPa SE 6.1 km/h 14.8 km/h 63% 0.0 mm 855 W/m2
13:37 23.5 °C 15.3 °C 1018.5 hPa SE 3.5 km/h 14.8 km/h 60% 0.0 mm 812 W/m2
13:42 23.8 °C 15.1 °C 1018.5 hPa ESE 6.1 km/h 14.8 km/h 58% 0.0 mm 804 W/m2
13:47 23.7 °C 14.9 °C 1018.2 hPa East 3.5 km/h 12.2 km/h 58% 0.0 mm 802 W/m2
13:52 23.9 °C 15.2 °C 1018.2 hPa ESE 3.5 km/h 17.2 km/h 58% 0.0 mm 736 W/m2
13:57 24.0 °C 14.7 °C 1018.2 hPa SE 5.0 km/h 17.2 km/h 56% 0.0 mm 787 W/m2
14:02 24.0 °C 14.7 °C 1018.2 hPa SE 5.0 km/h 17.2 km/h 56% 0.0 mm 773 W/m2
14:07 23.8 °C 15.3 °C 1018.2 hPa SE 3.5 km/h 17.2 km/h 59% 0.0 mm 768 W/m2
14:12 23.9 °C 14.9 °C 1018.2 hPa ESE 6.1 km/h 17.2 km/h 57% 0.0 mm 761 W/m2
14:17 23.8 °C 15.1 °C 1018.2 hPa SE 6.1 km/h 14.8 km/h 58% 0.0 mm 755 W/m2
14:22 24.0 °C 15.0 °C 1018.2 hPa SE 2.6 km/h 15.8 km/h 57% 0.0 mm 748 W/m2
14:27 24.0 °C 15.0 °C 1018.2 hPa SE 7.2 km/h 15.8 km/h 57% 0.0 mm 744 W/m2
14:32 24.1 °C 15.3 °C 1017.8 hPa SE 6.1 km/h 13.4 km/h 58% 0.0 mm 735 W/m2
14:37 24.2 °C 15.4 °C 1017.8 hPa SE 5.0 km/h 15.8 km/h 58% 0.0 mm 727 W/m2
14:42 23.9 °C 15.4 °C 1017.8 hPa SE 5.0 km/h 15.8 km/h 59% 0.0 mm 717 W/m2
14:47 24.0 °C 15.2 °C 1017.8 hPa SE 2.6 km/h 15.8 km/h 58% 0.0 mm 709 W/m2
14:52 24.1 °C 15.1 °C 1018.2 hPa SSE 3.5 km/h 14.8 km/h 57% 0.0 mm 697 W/m2
14:57 24.4 °C 15.1 °C 1017.8 hPa SE 5.0 km/h 14.8 km/h 56% 0.0 mm 694 W/m2
15:02 24.1 °C 15.1 °C 1017.8 hPa SE 6.1 km/h 14.8 km/h 57% 0.0 mm 685 W/m2
15:07 24.1 °C 15.1 °C 1017.8 hPa SSE 6.1 km/h 19.5 km/h 57% 0.0 mm 676 W/m2
15:12 24.2 °C 15.4 °C 1017.8 hPa SSE 6.1 km/h 19.5 km/h 58% 0.0 mm 670 W/m2
15:17 24.4 °C 15.1 °C 1017.8 hPa SE 5.0 km/h 15.8 km/h 56% 0.0 mm 659 W/m2
15:22 24.4 °C 15.3 °C 1017.8 hPa ESE 5.0 km/h 15.8 km/h 57% 0.0 mm 648 W/m2
15:27 24.2 °C 15.4 °C 1017.8 hPa ESE 8.7 km/h 17.2 km/h 58% 0.0 mm 633 W/m2
15:32 24.1 °C 15.1 °C 1017.8 hPa SE 7.2 km/h 17.2 km/h 57% 0.0 mm 627 W/m2
15:37 23.9 °C 15.7 °C 1017.8 hPa SE 7.2 km/h 15.8 km/h 60% 0.0 mm 616 W/m2
15:42 24.0 °C 15.5 °C 1017.5 hPa ESE 7.2 km/h 15.8 km/h 59% 0.0 mm 602 W/m2
15:47 24.1 °C 15.6 °C 1017.5 hPa SE 8.7 km/h 17.2 km/h 59% 0.0 mm 596 W/m2
15:52 24.0 °C 15.8 °C 1017.5 hPa SE 6.1 km/h 17.2 km/h 60% 0.0 mm 585 W/m2
15:57 24.0 °C 15.8 °C 1017.5 hPa ESE 5.0 km/h 14.8 km/h 60% 0.0 mm 577 W/m2
16:02 24.1 °C 15.3 °C 1017.5 hPa ESE 8.7 km/h 18.3 km/h 58% 0.0 mm 561 W/m2
16:07 23.9 °C 15.7 °C 1017.5 hPa East 6.1 km/h 18.3 km/h 60% 0.0 mm 551 W/m2
16:16 24.2 °C 16.2 °C 1017.2 hPa SE 3.5 km/h 15.8 km/h 61% 0.0 mm 534 W/m2
16:21 24.0 °C 15.5 °C 1017.5 hPa SE 3.5 km/h 17.2 km/h 59% 0.0 mm 523 W/m2
16:23 23.9 °C 15.7 °C 1017.2 hPa SE 8.7 km/h 20.9 km/h 60% 0.0 mm 524 W/m2
16:25 24.0 °C 15.5 °C 1017.2 hPa SE 7.2 km/h 20.9 km/h 59% 0.0 mm 517 W/m2
16:31 24.0 °C 15.5 °C 1017.2 hPa SE 8.7 km/h 20.9 km/h 59% 0.0 mm 505 W/m2
16:36 23.8 °C 15.8 °C 1017.2 hPa ESE 8.7 km/h 19.5 km/h 61% 0.0 mm 494 W/m2
16:41 23.9 °C 16.4 °C 1017.2 hPa SE 5.0 km/h 17.2 km/h 63% 0.0 mm 482 W/m2
16:46 24.1 °C 16.1 °C 1017.2 hPa ESE 5.0 km/h 14.8 km/h 61% 0.0 mm 469 W/m2
16:51 24.3 °C 16.3 °C 1016.8 hPa ESE 6.1 km/h 14.8 km/h 61% 0.0 mm 460 W/m2
16:56 24.2 °C 16.5 °C 1016.8 hPa SE 3.5 km/h 14.8 km/h 62% 0.0 mm 446 W/m2
17:01 24.3 °C 16.3 °C 1017.2 hPa SE 2.6 km/h 14.8 km/h 61% 0.0 mm 433 W/m2
17:06 24.0 °C 15.8 °C 1016.8 hPa SSE 11.1 km/h 17.2 km/h 60% 0.0 mm 423 W/m2
17:11 23.7 °C 16.5 °C 1016.8 hPa SSE 5.0 km/h 18.3 km/h 64% 0.0 mm 406 W/m2
17:16 23.6 °C 16.7 °C 1016.8 hPa SE 7.2 km/h 18.3 km/h 65% 0.0 mm 393 W/m2
17:21 23.8 °C 16.6 °C 1016.8 hPa ESE 6.1 km/h 18.3 km/h 64% 0.0 mm 380 W/m2
17:26 23.6 °C 16.4 °C 1016.8 hPa ESE 9.7 km/h 15.8 km/h 64% 0.0 mm 368 W/m2
17:31 23.6 °C 16.7 °C 1016.8 hPa SE 3.5 km/h 15.8 km/h 65% 0.0 mm 358 W/m2
17:36 23.8 °C 16.6 °C 1016.8 hPa ESE 6.1 km/h 17.2 km/h 64% 0.0 mm 344 W/m2
17:42 23.6 °C 16.7 °C 1016.8 hPa ESE 7.2 km/h 17.2 km/h 65% 0.0 mm 328 W/m2
17:47 23.6 °C 16.9 °C 1016.8 hPa ESE 8.7 km/h 17.2 km/h 66% 0.0 mm 318 W/m2
17:52 23.7 °C 16.7 °C 1016.5 hPa SE 6.1 km/h 15.8 km/h 65% 0.0 mm 305 W/m2
17:57 23.4 °C 16.7 °C 1016.5 hPa SE 7.2 km/h 13.4 km/h 66% 0.0 mm 292 W/m2
18:02 23.3 °C 16.6 °C 1016.5 hPa SE 11.1 km/h 15.8 km/h 66% 0.0 mm 282 W/m2
18:07 23.1 °C 16.7 °C 1016.5 hPa SE 7.2 km/h 15.8 km/h 67% 0.0 mm 268 W/m2
18:12 23.2 °C 16.8 °C 1016.8 hPa SE 6.1 km/h 15.8 km/h 67% 0.0 mm 256 W/m2
18:17 22.9 °C 16.4 °C 1016.5 hPa ESE 8.7 km/h 20.9 km/h 67% 0.0 mm 245 W/m2
18:22 23.1 °C 16.9 °C 1016.5 hPa ESE 6.1 km/h 20.9 km/h 68% 0.0 mm 233 W/m2
18:27 23.1 °C 16.7 °C 1016.5 hPa ESE 5.0 km/h 15.8 km/h 67% 0.0 mm 223 W/m2
18:32 23.2 °C 17.0 °C 1016.5 hPa ESE 6.1 km/h 15.8 km/h 68% 0.0 mm 213 W/m2
18:37 22.9 °C 16.4 °C 1016.8 hPa ESE 3.5 km/h 19.5 km/h 67% 0.0 mm 201 W/m2
18:42 23.0 °C 16.6 °C 1016.8 hPa ESE 6.1 km/h 19.5 km/h 67% 0.0 mm 194 W/m2
18:47 23.4 °C 16.9 °C 1016.5 hPa SE 1.1 km/h 12.2 km/h 67% 0.0 mm 181 W/m2
18:52 23.9 °C 17.2 °C 1016.8 hPa Calm   11.1 km/h 66% 0.0 mm 172 W/m2
18:57 24.5 °C 17.3 °C 1016.8 hPa ESE 2.6 km/h 8.7 km/h 64% 0.0 mm 163 W/m2
19:02 24.4 °C 17.2 °C 1016.8 hPa Calm   6.1 km/h 64% 0.0 mm 153 W/m2
19:07 24.5 °C 17.3 °C 1016.8 hPa Calm   6.1 km/h 64% 0.0 mm 143 W/m2
19:12 24.3 °C 16.6 °C 1016.8 hPa Calm   5.0 km/h 62% 0.0 mm 132 W/m2
19:17 24.1 °C 16.9 °C 1016.8 hPa East 3.5 km/h 6.1 km/h 64% 0.0 mm 123 W/m2
19:22 24.0 °C 16.8 °C 1016.8 hPa East 1.1 km/h 6.1 km/h 64% 0.0 mm 114 W/m2
19:27 24.0 °C 16.8 °C 1016.8 hPa Calm   6.1 km/h 64% 0.0 mm 104 W/m2
19:32 24.8 °C 17.3 °C 1016.5 hPa Calm   2.6 km/h 63% 0.0 mm 93 W/m2
19:37 24.5 °C 17.0 °C 1016.8 hPa Calm   1.1 km/h 63% 0.0 mm 82 W/m2
19:42 24.9 °C 17.2 °C 1016.8 hPa Calm   1.1 km/h 62% 0.0 mm 70 W/m2
19:47 24.4 °C 17.2 °C 1016.8 hPa Calm   1.1 km/h 64% 0.0 mm 56 W/m2
19:52 24.3 °C 17.1 °C 1017.2 hPa Calm   1.1 km/h 64% 0.0 mm 44 W/m2
19:58 24.0 °C 16.8 °C 1016.8 hPa Calm   1.1 km/h 64% 0.0 mm 35 W/m2
20:03 23.0 °C 16.8 °C 1017.2 hPa Calm   1.1 km/h 68% 0.0 mm 22 W/m2
20:08 22.0 °C 16.3 °C 1016.8 hPa Calm     70% 0.0 mm 11 W/m2
20:13 21.3 °C 16.3 °C 1017.2 hPa Calm     73% 0.0 mm 6 W/m2
20:18 20.7 °C 16.6 °C 1017.2 hPa NW 2.6 km/h 5.0 km/h 77% 0.0 mm 4 W/m2
20:23 20.4 °C 16.7 °C 1017.2 hPa Calm   5.0 km/h 79% 0.0 mm 1 W/m2
20:28 20.3 °C 16.9 °C 1017.2 hPa NNW 2.6 km/h 5.0 km/h 81% 0.0 mm 0 W/m2
20:33 20.1 °C 16.8 °C 1017.5 hPa NNW 3.5 km/h 7.2 km/h 81% 0.0 mm 0 W/m2
20:38 19.9 °C 16.9 °C 1017.5 hPa Calm   7.2 km/h 83% 0.0 mm 0 W/m2
20:43 19.8 °C 17.1 °C 1017.8 hPa NNW 1.1 km/h 7.2 km/h 84% 0.0 mm 0 W/m2
20:48 19.7 °C 16.9 °C 1017.5 hPa NNW 2.6 km/h 7.2 km/h 84% 0.0 mm 0 W/m2
20:53 19.5 °C 16.7 °C 1017.5 hPa NNW 2.6 km/h 7.2 km/h 84% 0.0 mm 0 W/m2
20:58 19.4 °C 16.8 °C 1017.8 hPa NNW 1.1 km/h 7.2 km/h 85% 0.0 mm 0 W/m2
21:03 19.3 °C 16.7 °C 1017.8 hPa Calm   6.1 km/h 85% 0.0 mm 0 W/m2
21:08 19.2 °C 16.6 °C 1017.8 hPa NE 2.6 km/h 5.0 km/h 85% 0.0 mm 0 W/m2
21:13 19.1 °C 16.3 °C 1017.8 hPa Calm   3.5 km/h 84% 0.0 mm 0 W/m2
21:18 18.9 °C 16.3 °C 1018.2 hPa Calm   3.5 km/h 85% 0.0 mm 0 W/m2
21:23 18.7 °C 16.2 °C 1017.8 hPa Calm   2.6 km/h 85% 0.0 mm 0 W/m2
21:28 18.7 °C 15.9 °C 1017.8 hPa NE 1.1 km/h 5.0 km/h 84% 0.0 mm 0 W/m2
21:33 18.6 °C 15.8 °C 1017.8 hPa Calm   5.0 km/h 84% 0.0 mm 0 W/m2
21:38 18.5 °C 15.6 °C 1018.2 hPa Calm   5.0 km/h 83% 0.0 mm 0 W/m2
21:43 18.4 °C 15.4 °C 1018.2 hPa Calm   2.6 km/h 83% 0.0 mm 0 W/m2
21:48 18.3 °C 15.4 °C 1018.2 hPa Calm   1.1 km/h 83% 0.0 mm 0 W/m2
21:53 18.1 °C 15.2 °C 1018.2 hPa Calm   1.1 km/h 83% 0.0 mm 0 W/m2
21:58 18.0 °C 15.3 °C 1018.5 hPa Calm   1.1 km/h 84% 0.0 mm 0 W/m2
22:03 17.9 °C 15.0 °C 1018.2 hPa Calm   1.1 km/h 83% 0.0 mm 0 W/m2
22:08 17.8 °C 15.1 °C 1018.2 hPa Calm   1.1 km/h 84% 0.0 mm 0 W/m2
22:13 17.8 °C 14.9 °C 1018.5 hPa Calm   2.6 km/h 83% 0.0 mm 0 W/m2
22:18 17.7 °C 14.8 °C 1018.5 hPa Calm   3.5 km/h 83% 0.0 mm 0 W/m2
22:23 17.6 °C 14.7 °C 1018.5 hPa Calm   3.5 km/h 83% 0.0 mm 0 W/m2
22:28 17.6 °C 14.7 °C 1018.2 hPa Calm   3.5 km/h 83% 0.0 mm 0 W/m2
22:33 17.5 °C 14.6 °C 1018.5 hPa Calm   1.1 km/h 83% 0.0 mm 0 W/m2
22:38 17.4 °C 14.7 °C 1018.5 hPa Calm   1.1 km/h 84% 0.0 mm 0 W/m2
22:43 17.4 °C 14.7 °C 1018.5 hPa Calm   1.1 km/h 84% 0.0 mm 0 W/m2
23:00 17.3 °C 14.6 °C 1018.2 hPa Calm   2.6 km/h 84% 0.0 mm 0 W/m2
23:05 17.3 °C 14.6 °C 1018.2 hPa Calm   2.6 km/h 84% 0.0 mm 0 W/m2
23:10 17.2 °C 14.5 °C 1018.5 hPa Calm   1.1 km/h 84% 0.0 mm 0 W/m2
23:15 17.0 °C 14.3 °C 1018.5 hPa Calm     84% 0.0 mm 0 W/m2
23:20 17.0 °C 14.3 °C 1018.5 hPa Calm     84% 0.0 mm 0 W/m2
23:25 16.8 °C 14.4 °C 1018.2 hPa Calm     86% 0.0 mm 0 W/m2
23:30 16.8 °C 14.4 °C 1018.2 hPa Calm     86% 0.0 mm 0 W/m2
23:35 16.8 °C 14.4 °C 1018.2 hPa Calm     86% 0.0 mm 0 W/m2
23:40 16.8 °C 14.6 °C 1018.5 hPa Calm   1.1 km/h 87% 0.0 mm 0 W/m2
23:45 16.8 °C 14.6 °C 1018.5 hPa Calm   1.1 km/h 87% 0.0 mm 0 W/m2
23:50 16.8 °C 14.6 °C 1018.2 hPa Calm   1.1 km/h 87% 0.0 mm 0 W/m2
23:55 16.8 °C 14.6 °C 1018.5 hPa Calm   1.1 km/h 87% 0.0 mm 0 W/m2
Northern Hawkes Bay. New Zealand Historic Data
Compliments of Weather Underground - 2 mb